sensor_id;sensor_type;location;lat;lon;timestamp;temperature;humidity
20866;DHT22;10593;48.398;10.698;2024-02-21T00:00:53;8.60;53.20
20866;DHT22;10593;48.398;10.698;2024-02-21T00:03:18;8.60;53.20
20866;DHT22;10593;48.398;10.698;2024-02-21T00:05:45;8.60;53.30
20866;DHT22;10593;48.398;10.698;2024-02-21T00:08:10;8.50;53.30
20866;DHT22;10593;48.398;10.698;2024-02-21T00:10:36;8.50;53.30
20866;DHT22;10593;48.398;10.698;2024-02-21T00:13:02;8.50;53.40
20866;DHT22;10593;48.398;10.698;2024-02-21T00:15:28;8.50;53.40
20866;DHT22;10593;48.398;10.698;2024-02-21T00:17:54;8.50;53.40
20866;DHT22;10593;48.398;10.698;2024-02-21T00:20:20;8.50;53.50
20866;DHT22;10593;48.398;10.698;2024-02-21T00:22:46;8.50;53.50
20866;DHT22;10593;48.398;10.698;2024-02-21T00:25:11;8.50;53.50
20866;DHT22;10593;48.398;10.698;2024-02-21T00:27:37;8.50;53.50
20866;DHT22;10593;48.398;10.698;2024-02-21T00:30:04;8.50;53.50
20866;DHT22;10593;48.398;10.698;2024-02-21T00:32:31;8.50;53.50
20866;DHT22;10593;48.398;10.698;2024-02-21T00:34:57;8.50;53.60
20866;DHT22;10593;48.398;10.698;2024-02-21T00:37:23;8.50;53.60
20866;DHT22;10593;48.398;10.698;2024-02-21T00:39:48;8.50;53.70
20866;DHT22;10593;48.398;10.698;2024-02-21T00:42:14;8.50;53.80
20866;DHT22;10593;48.398;10.698;2024-02-21T00:44:40;8.50;53.80
20866;DHT22;10593;48.398;10.698;2024-02-21T00:47:05;8.50;53.80
20866;DHT22;10593;48.398;10.698;2024-02-21T00:49:31;8.50;53.80
20866;DHT22;10593;48.398;10.698;2024-02-21T00:51:57;8.50;53.90
20866;DHT22;10593;48.398;10.698;2024-02-21T00:54:22;8.50;54.00
20866;DHT22;10593;48.398;10.698;2024-02-21T00:56:48;8.50;54.00
20866;DHT22;10593;48.398;10.698;2024-02-21T00:59:14;8.50;54.10
20866;DHT22;10593;48.398;10.698;2024-02-21T01:01:39;8.50;54.20
20866;DHT22;10593;48.398;10.698;2024-02-21T01:04:08;8.50;54.20
20866;DHT22;10593;48.398;10.698;2024-02-21T01:06:34;8.50;54.20
20866;DHT22;10593;48.398;10.698;2024-02-21T01:09:00;8.50;54.20
20866;DHT22;10593;48.398;10.698;2024-02-21T01:11:26;8.50;54.20
20866;DHT22;10593;48.398;10.698;2024-02-21T01:13:52;8.40;54.20
20866;DHT22;10593;48.398;10.698;2024-02-21T01:16:18;8.50;54.40
20866;DHT22;10593;48.398;10.698;2024-02-21T01:18:44;8.40;54.20
20866;DHT22;10593;48.398;10.698;2024-02-21T01:21:09;8.40;54.20
20866;DHT22;10593;48.398;10.698;2024-02-21T01:23:36;8.40;54.20
20866;DHT22;10593;48.398;10.698;2024-02-21T01:26:03;8.40;54.20
20866;DHT22;10593;48.398;10.698;2024-02-21T01:28:30;8.40;54.20
20866;DHT22;10593;48.398;10.698;2024-02-21T01:30:56;8.40;54.20
20866;DHT22;10593;48.398;10.698;2024-02-21T01:33:22;8.40;54.20
20866;DHT22;10593;48.398;10.698;2024-02-21T01:35:48;8.40;54.20
20866;DHT22;10593;48.398;10.698;2024-02-21T01:38:15;8.40;54.20
20866;DHT22;10593;48.398;10.698;2024-02-21T01:40:41;8.40;54.20
20866;DHT22;10593;48.398;10.698;2024-02-21T01:43:16;8.40;54.20
20866;DHT22;10593;48.398;10.698;2024-02-21T01:45:55;8.40;54.20
20866;DHT22;10593;48.398;10.698;2024-02-21T01:48:25;8.40;54.20
20866;DHT22;10593;48.398;10.698;2024-02-21T01:50:52;8.40;54.20
20866;DHT22;10593;48.398;10.698;2024-02-21T01:53:22;8.40;54.20
20866;DHT22;10593;48.398;10.698;2024-02-21T01:55:50;8.40;54.20
20866;DHT22;10593;48.398;10.698;2024-02-21T01:58:17;8.40;54.20
20866;DHT22;10593;48.398;10.698;2024-02-21T02:00:45;8.40;54.20
20866;DHT22;10593;48.398;10.698;2024-02-21T02:03:12;8.40;54.20
20866;DHT22;10593;48.398;10.698;2024-02-21T02:05:48;8.40;54.20
20866;DHT22;10593;48.398;10.698;2024-02-21T02:08:16;8.40;54.20
20866;DHT22;10593;48.398;10.698;2024-02-21T02:10:43;8.40;54.20
20866;DHT22;10593;48.398;10.698;2024-02-21T02:13:09;8.30;54.10
20866;DHT22;10593;48.398;10.698;2024-02-21T02:15:45;8.40;54.20
20866;DHT22;10593;48.398;10.698;2024-02-21T02:18:13;8.40;54.20
20866;DHT22;10593;48.398;10.698;2024-02-21T02:20:40;8.30;54.10
20866;DHT22;10593;48.398;10.698;2024-02-21T02:23:10;8.30;54.10
20866;DHT22;10593;48.398;10.698;2024-02-21T02:25:37;8.30;54.10
20866;DHT22;10593;48.398;10.698;2024-02-21T02:28:06;8.30;54.10
20866;DHT22;10593;48.398;10.698;2024-02-21T02:30:35;8.30;54.10
20866;DHT22;10593;48.398;10.698;2024-02-21T02:33:05;8.30;54.10
20866;DHT22;10593;48.398;10.698;2024-02-21T02:35:31;8.30;54.10
20866;DHT22;10593;48.398;10.698;2024-02-21T02:37:57;8.30;54.10
20866;DHT22;10593;48.398;10.698;2024-02-21T02:40:24;8.30;54.10
20866;DHT22;10593;48.398;10.698;2024-02-21T02:42:50;8.30;54.10
20866;DHT22;10593;48.398;10.698;2024-02-21T02:45:17;8.30;54.10
20866;DHT22;10593;48.398;10.698;2024-02-21T02:47:47;8.30;54.10
20866;DHT22;10593;48.398;10.698;2024-02-21T02:50:12;8.30;54.10
20866;DHT22;10593;48.398;10.698;2024-02-21T02:52:39;8.30;54.20
20866;DHT22;10593;48.398;10.698;2024-02-21T02:55:05;8.30;54.40
20866;DHT22;10593;48.398;10.698;2024-02-21T02:57:31;8.30;54.40
20866;DHT22;10593;48.398;10.698;2024-02-21T02:59:58;8.30;54.40
20866;DHT22;10593;48.398;10.698;2024-02-21T03:02:23;8.30;54.50
20866;DHT22;10593;48.398;10.698;2024-02-21T03:04:49;8.30;54.60
20866;DHT22;10593;48.398;10.698;2024-02-21T03:07:15;8.30;54.60
20866;DHT22;10593;48.398;10.698;2024-02-21T03:09:41;8.30;54.70
20866;DHT22;10593;48.398;10.698;2024-02-21T03:12:10;8.30;54.80
20866;DHT22;10593;48.398;10.698;2024-02-21T03:14:35;8.30;54.80
20866;DHT22;10593;48.398;10.698;2024-02-21T03:17:02;8.30;54.80
20866;DHT22;10593;48.398;10.698;2024-02-21T03:19:28;8.30;54.90
20866;DHT22;10593;48.398;10.698;2024-02-21T03:21:54;8.30;55.00
20866;DHT22;10593;48.398;10.698;2024-02-21T03:24:21;8.30;55.00
20866;DHT22;10593;48.398;10.698;2024-02-21T03:26:47;8.30;55.10
20866;DHT22;10593;48.398;10.698;2024-02-21T03:29:15;8.30;55.10
20866;DHT22;10593;48.398;10.698;2024-02-21T03:31:41;8.30;55.10
20866;DHT22;10593;48.398;10.698;2024-02-21T03:34:08;8.30;55.10
20866;DHT22;10593;48.398;10.698;2024-02-21T03:36:36;8.30;55.20
20866;DHT22;10593;48.398;10.698;2024-02-21T03:39:02;8.30;55.20
20866;DHT22;10593;48.398;10.698;2024-02-21T03:41:29;8.30;55.20
20866;DHT22;10593;48.398;10.698;2024-02-21T03:43:55;8.30;55.30
20866;DHT22;10593;48.398;10.698;2024-02-21T03:46:20;8.30;55.40
20866;DHT22;10593;48.398;10.698;2024-02-21T03:48:46;8.30;55.40
20866;DHT22;10593;48.398;10.698;2024-02-21T03:51:12;8.30;55.40
20866;DHT22;10593;48.398;10.698;2024-02-21T03:53:37;8.30;55.50
20866;DHT22;10593;48.398;10.698;2024-02-21T03:56:03;8.30;55.50
20866;DHT22;10593;48.398;10.698;2024-02-21T03:58:32;8.30;55.50
20866;DHT22;10593;48.398;10.698;2024-02-21T04:01:02;8.30;55.60
20866;DHT22;10593;48.398;10.698;2024-02-21T04:03:30;8.30;55.60
20866;DHT22;10593;48.398;10.698;2024-02-21T04:05:56;8.30;55.60
20866;DHT22;10593;48.398;10.698;2024-02-21T04:08:22;8.30;55.70
20866;DHT22;10593;48.398;10.698;2024-02-21T04:10:48;8.30;55.70
20866;DHT22;10593;48.398;10.698;2024-02-21T04:13:14;8.30;55.70
20866;DHT22;10593;48.398;10.698;2024-02-21T04:15:40;8.30;55.70
20866;DHT22;10593;48.398;10.698;2024-02-21T04:18:06;8.30;55.80
20866;DHT22;10593;48.398;10.698;2024-02-21T04:20:31;8.30;55.80
20866;DHT22;10593;48.398;10.698;2024-02-21T04:22:57;8.30;55.70
20866;DHT22;10593;48.398;10.698;2024-02-21T04:25:23;8.30;55.70
20866;DHT22;10593;48.398;10.698;2024-02-21T04:27:49;8.30;55.70
20866;DHT22;10593;48.398;10.698;2024-02-21T04:30:15;8.30;55.80
20866;DHT22;10593;48.398;10.698;2024-02-21T04:32:41;8.30;55.80
20866;DHT22;10593;48.398;10.698;2024-02-21T04:35:07;8.30;55.80
20866;DHT22;10593;48.398;10.698;2024-02-21T04:37:34;8.30;55.70
20866;DHT22;10593;48.398;10.698;2024-02-21T04:40:00;8.30;55.70
20866;DHT22;10593;48.398;10.698;2024-02-21T04:42:26;8.30;55.80
20866;DHT22;10593;48.398;10.698;2024-02-21T04:44:51;8.30;55.90
20866;DHT22;10593;48.398;10.698;2024-02-21T04:47:17;8.30;55.80
20866;DHT22;10593;48.398;10.698;2024-02-21T04:49:44;8.30;55.80
20866;DHT22;10593;48.398;10.698;2024-02-21T04:52:09;8.30;55.80
20866;DHT22;10593;48.398;10.698;2024-02-21T04:54:35;8.30;55.80
20866;DHT22;10593;48.398;10.698;2024-02-21T04:57:01;8.30;55.90
20866;DHT22;10593;48.398;10.698;2024-02-21T04:59:26;8.30;55.90
20866;DHT22;10593;48.398;10.698;2024-02-21T05:01:52;8.30;55.90
20866;DHT22;10593;48.398;10.698;2024-02-21T05:04:18;8.30;55.90
20866;DHT22;10593;48.398;10.698;2024-02-21T05:06:43;8.30;55.90
20866;DHT22;10593;48.398;10.698;2024-02-21T05:09:09;8.30;56.00
20866;DHT22;10593;48.398;10.698;2024-02-21T05:11:36;8.30;56.00
20866;DHT22;10593;48.398;10.698;2024-02-21T05:14:03;8.30;56.00
20866;DHT22;10593;48.398;10.698;2024-02-21T05:16:29;8.30;56.00
20866;DHT22;10593;48.398;10.698;2024-02-21T05:18:55;8.20;55.90
20866;DHT22;10593;48.398;10.698;2024-02-21T05:21:25;8.20;56.00
20866;DHT22;10593;48.398;10.698;2024-02-21T05:23:52;8.20;56.00
20866;DHT22;10593;48.398;10.698;2024-02-21T05:26:25;8.30;56.10
20866;DHT22;10593;48.398;10.698;2024-02-21T05:28:51;8.20;56.10
20866;DHT22;10593;48.398;10.698;2024-02-21T05:31:20;8.20;56.10
20866;DHT22;10593;48.398;10.698;2024-02-21T05:33:46;8.20;56.10
20866;DHT22;10593;48.398;10.698;2024-02-21T05:36:13;8.20;56.00
20866;DHT22;10593;48.398;10.698;2024-02-21T05:38:39;8.20;56.10
20866;DHT22;10593;48.398;10.698;2024-02-21T05:41:05;8.20;56.00
20866;DHT22;10593;48.398;10.698;2024-02-21T05:43:31;8.20;56.00
20866;DHT22;10593;48.398;10.698;2024-02-21T05:45:57;8.20;56.00
20866;DHT22;10593;48.398;10.698;2024-02-21T05:48:23;8.20;55.90
20866;DHT22;10593;48.398;10.698;2024-02-21T05:50:49;8.20;55.90
20866;DHT22;10593;48.398;10.698;2024-02-21T05:53:15;8.20;55.90
20866;DHT22;10593;48.398;10.698;2024-02-21T05:55:41;8.20;55.80
20866;DHT22;10593;48.398;10.698;2024-02-21T05:58:07;8.20;55.80
20866;DHT22;10593;48.398;10.698;2024-02-21T06:00:35;8.20;55.70
20866;DHT22;10593;48.398;10.698;2024-02-21T06:03:00;8.20;55.70
20866;DHT22;10593;48.398;10.698;2024-02-21T06:05:27;8.20;55.80
20866;DHT22;10593;48.398;10.698;2024-02-21T06:07:53;8.20;55.80
20866;DHT22;10593;48.398;10.698;2024-02-21T06:10:19;8.10;55.70
20866;DHT22;10593;48.398;10.698;2024-02-21T06:12:44;8.10;55.70
20866;DHT22;10593;48.398;10.698;2024-02-21T06:15:10;8.10;55.70
20866;DHT22;10593;48.398;10.698;2024-02-21T06:17:35;8.10;55.70
20866;DHT22;10593;48.398;10.698;2024-02-21T06:20:01;8.10;55.80
20866;DHT22;10593;48.398;10.698;2024-02-21T06:22:27;8.10;55.80
20866;DHT22;10593;48.398;10.698;2024-02-21T06:24:52;8.10;55.80
20866;DHT22;10593;48.398;10.698;2024-02-21T06:27:19;8.10;55.80
20866;DHT22;10593;48.398;10.698;2024-02-21T06:29:45;8.10;55.80
20866;DHT22;10593;48.398;10.698;2024-02-21T06:32:11;8.10;55.80
20866;DHT22;10593;48.398;10.698;2024-02-21T06:34:36;8.10;55.80
20866;DHT22;10593;48.398;10.698;2024-02-21T06:37:02;8.10;55.80
20866;DHT22;10593;48.398;10.698;2024-02-21T06:39:28;8.10;55.80
20866;DHT22;10593;48.398;10.698;2024-02-21T06:41:54;8.10;55.80
20866;DHT22;10593;48.398;10.698;2024-02-21T06:44:21;8.10;55.80
20866;DHT22;10593;48.398;10.698;2024-02-21T06:46:47;8.10;55.80
20866;DHT22;10593;48.398;10.698;2024-02-21T06:49:13;8.10;55.70
20866;DHT22;10593;48.398;10.698;2024-02-21T06:51:44;8.10;55.70
20866;DHT22;10593;48.398;10.698;2024-02-21T06:54:10;8.10;55.60
20866;DHT22;10593;48.398;10.698;2024-02-21T06:56:36;8.10;55.60
20866;DHT22;10593;48.398;10.698;2024-02-21T06:59:03;8.10;55.60
20866;DHT22;10593;48.398;10.698;2024-02-21T07:01:30;8.10;55.60
20866;DHT22;10593;48.398;10.698;2024-02-21T07:03:56;8.10;55.70
20866;DHT22;10593;48.398;10.698;2024-02-21T07:06:22;8.10;55.90
20866;DHT22;10593;48.398;10.698;2024-02-21T07:08:48;8.10;56.10
20866;DHT22;10593;48.398;10.698;2024-02-21T07:11:13;8.20;56.20
20866;DHT22;10593;48.398;10.698;2024-02-21T07:13:39;8.20;55.90
20866;DHT22;10593;48.398;10.698;2024-02-21T07:16:06;8.30;56.00
20866;DHT22;10593;48.398;10.698;2024-02-21T07:18:32;8.30;55.90
20866;DHT22;10593;48.398;10.698;2024-02-21T07:20:58;8.30;55.80
20866;DHT22;10593;48.398;10.698;2024-02-21T07:23:24;8.30;55.80
20866;DHT22;10593;48.398;10.698;2024-02-21T07:25:50;8.30;55.70
20866;DHT22;10593;48.398;10.698;2024-02-21T07:28:15;8.30;55.60
20866;DHT22;10593;48.398;10.698;2024-02-21T07:30:42;8.30;55.50
20866;DHT22;10593;48.398;10.698;2024-02-21T07:33:08;8.40;55.60
20866;DHT22;10593;48.398;10.698;2024-02-21T07:35:34;8.40;55.70
20866;DHT22;10593;48.398;10.698;2024-02-21T07:38:05;8.50;55.80
20866;DHT22;10593;48.398;10.698;2024-02-21T07:40:31;8.60;56.30
20866;DHT22;10593;48.398;10.698;2024-02-21T07:42:57;8.80;56.80
20866;DHT22;10593;48.398;10.698;2024-02-21T07:45:22;9.10;56.70
20866;DHT22;10593;48.398;10.698;2024-02-21T07:47:49;9.30;56.20
20866;DHT22;10593;48.398;10.698;2024-02-21T07:50:16;9.40;55.70
20866;DHT22;10593;48.398;10.698;2024-02-21T07:52:43;9.60;55.20
20866;DHT22;10593;48.398;10.698;2024-02-21T07:55:08;9.80;55.30
20866;DHT22;10593;48.398;10.698;2024-02-21T07:57:36;9.90;55.00
20866;DHT22;10593;48.398;10.698;2024-02-21T08:00:02;10.10;53.80
20866;DHT22;10593;48.398;10.698;2024-02-21T08:02:30;10.20;53.50
20866;DHT22;10593;48.398;10.698;2024-02-21T08:04:55;10.20;53.40
20866;DHT22;10593;48.398;10.698;2024-02-21T08:07:21;10.20;53.20
20866;DHT22;10593;48.398;10.698;2024-02-21T08:09:46;10.30;53.10
20866;DHT22;10593;48.398;10.698;2024-02-21T08:12:12;10.30;52.90
20866;DHT22;10593;48.398;10.698;2024-02-21T08:14:38;10.30;52.80
20866;DHT22;10593;48.398;10.698;2024-02-21T08:17:03;10.30;52.60
20866;DHT22;10593;48.398;10.698;2024-02-21T08:19:29;10.30;52.60
20866;DHT22;10593;48.398;10.698;2024-02-21T08:21:55;10.30;52.60
20866;DHT22;10593;48.398;10.698;2024-02-21T08:24:21;10.30;52.60
20866;DHT22;10593;48.398;10.698;2024-02-21T08:26:48;10.30;52.60
20866;DHT22;10593;48.398;10.698;2024-02-21T08:29:13;10.30;52.60
20866;DHT22;10593;48.398;10.698;2024-02-21T08:31:39;10.30;52.60
20866;DHT22;10593;48.398;10.698;2024-02-21T08:34:05;10.20;52.50
20866;DHT22;10593;48.398;10.698;2024-02-21T08:36:34;10.20;52.50
20866;DHT22;10593;48.398;10.698;2024-02-21T08:39:01;10.20;52.50
20866;DHT22;10593;48.398;10.698;2024-02-21T08:41:31;10.20;52.50
20866;DHT22;10593;48.398;10.698;2024-02-21T08:43:57;10.20;52.70
20866;DHT22;10593;48.398;10.698;2024-02-21T08:46:23;10.20;52.70
20866;DHT22;10593;48.398;10.698;2024-02-21T08:48:50;10.10;52.40
20866;DHT22;10593;48.398;10.698;2024-02-21T08:51:16;10.20;52.70
20866;DHT22;10593;48.398;10.698;2024-02-21T08:53:44;10.20;52.90
20866;DHT22;10593;48.398;10.698;2024-02-21T08:56:11;10.10;52.90
20866;DHT22;10593;48.398;10.698;2024-02-21T08:58:38;10.10;53.00
20866;DHT22;10593;48.398;10.698;2024-02-21T09:01:07;10.10;53.00
20866;DHT22;10593;48.398;10.698;2024-02-21T09:03:37;10.10;52.90
20866;DHT22;10593;48.398;10.698;2024-02-21T09:06:04;10.20;53.10
20866;DHT22;10593;48.398;10.698;2024-02-21T09:08:31;10.20;53.00
20866;DHT22;10593;48.398;10.698;2024-02-21T09:10:57;10.20;53.00
20866;DHT22;10593;48.398;10.698;2024-02-21T09:13:22;10.10;52.90
20866;DHT22;10593;48.398;10.698;2024-02-21T09:15:49;10.20;53.00
20866;DHT22;10593;48.398;10.698;2024-02-21T09:18:15;10.20;53.10
20866;DHT22;10593;48.398;10.698;2024-02-21T09:20:42;10.20;53.00
20866;DHT22;10593;48.398;10.698;2024-02-21T09:23:08;10.20;53.10
20866;DHT22;10593;48.398;10.698;2024-02-21T09:25:34;10.20;53.00
20866;DHT22;10593;48.398;10.698;2024-02-21T09:28:01;10.20;53.10
20866;DHT22;10593;48.398;10.698;2024-02-21T09:30:28;10.20;53.10
20866;DHT22;10593;48.398;10.698;2024-02-21T09:32:54;10.20;53.00
20866;DHT22;10593;48.398;10.698;2024-02-21T09:35:19;10.30;53.10
20866;DHT22;10593;48.398;10.698;2024-02-21T09:37:48;10.30;53.00
20866;DHT22;10593;48.398;10.698;2024-02-21T09:40:15;10.30;52.90
20866;DHT22;10593;48.398;10.698;2024-02-21T09:42:46;10.30;53.00
20866;DHT22;10593;48.398;10.698;2024-02-21T09:45:21;10.30;52.90
20866;DHT22;10593;48.398;10.698;2024-02-21T09:50:40;10.40;52.70
20866;DHT22;10593;48.398;10.698;2024-02-21T09:53:06;10.40;52.90
20866;DHT22;10593;48.398;10.698;2024-02-21T09:55:36;10.40;52.80
20866;DHT22;10593;48.398;10.698;2024-02-21T09:58:05;10.50;52.70
20866;DHT22;10593;48.398;10.698;2024-02-21T10:00:31;10.50;52.70
20866;DHT22;10593;48.398;10.698;2024-02-21T10:02:58;10.50;52.70
20866;DHT22;10593;48.398;10.698;2024-02-21T10:05:24;10.60;52.50
20866;DHT22;10593;48.398;10.698;2024-02-21T10:07:51;10.60;52.50
20866;DHT22;10593;48.398;10.698;2024-02-21T10:10:17;10.60;52.50
20866;DHT22;10593;48.398;10.698;2024-02-21T10:12:53;10.60;52.40
20866;DHT22;10593;48.398;10.698;2024-02-21T10:15:22;10.70;52.20
20866;DHT22;10593;48.398;10.698;2024-02-21T10:17:58;10.70;52.20
20866;DHT22;10593;48.398;10.698;2024-02-21T10:20:25;10.70;51.90
20866;DHT22;10593;48.398;10.698;2024-02-21T10:23:03;10.80;51.90
20866;DHT22;10593;48.398;10.698;2024-02-21T10:25:34;10.80;51.80
20866;DHT22;10593;48.398;10.698;2024-02-21T10:28:01;10.80;51.90
20866;DHT22;10593;48.398;10.698;2024-02-21T10:30:28;10.80;51.80
20866;DHT22;10593;48.398;10.698;2024-02-21T10:32:54;10.80;51.80
20866;DHT22;10593;48.398;10.698;2024-02-21T10:35:28;10.90;51.90
20866;DHT22;10593;48.398;10.698;2024-02-21T10:37:58;10.90;51.60
20866;DHT22;10593;48.398;10.698;2024-02-21T10:40:28;10.90;51.60
20866;DHT22;10593;48.398;10.698;2024-02-21T10:42:57;11.00;51.60
20866;DHT22;10593;48.398;10.698;2024-02-21T10:45:44;11.00;51.50
20866;DHT22;10593;48.398;10.698;2024-02-21T10:48:14;11.00;51.00
20866;DHT22;10593;48.398;10.698;2024-02-21T10:56:43;11.10;51.00
20866;DHT22;10593;48.398;10.698;2024-02-21T10:59:11;11.20;51.20
20866;DHT22;10593;48.398;10.698;2024-02-21T11:01:39;11.20;51.20
20866;DHT22;10593;48.398;10.698;2024-02-21T11:04:06;11.20;51.20
20866;DHT22;10593;48.398;10.698;2024-02-21T11:06:36;11.30;51.20
20866;DHT22;10593;48.398;10.698;2024-02-21T11:09:08;11.30;51.60
20866;DHT22;10593;48.398;10.698;2024-02-21T11:11:36;11.30;50.90
20866;DHT22;10593;48.398;10.698;2024-02-21T11:14:18;11.30;50.60
20866;DHT22;10593;48.398;10.698;2024-02-21T11:16:46;11.30;50.30
20866;DHT22;10593;48.398;10.698;2024-02-21T11:19:26;11.40;50.40
20866;DHT22;10593;48.398;10.698;2024-02-21T11:21:55;11.40;50.00
20866;DHT22;10593;48.398;10.698;2024-02-21T11:24:28;11.40;50.40
20866;DHT22;10593;48.398;10.698;2024-02-21T11:27:41;11.40;50.20
20866;DHT22;10593;48.398;10.698;2024-02-21T11:29:49;11.50;50.50
20866;DHT22;10593;48.398;10.698;2024-02-21T11:32:21;11.50;50.90
20866;DHT22;10593;48.398;10.698;2024-02-21T11:34:59;11.50;50.40
20866;DHT22;10593;48.398;10.698;2024-02-21T11:37:27;11.60;50.00
20866;DHT22;10593;48.398;10.698;2024-02-21T11:39:55;11.60;50.00
20866;DHT22;10593;48.398;10.698;2024-02-21T11:42:21;11.60;49.90
20866;DHT22;10593;48.398;10.698;2024-02-21T11:44:48;11.60;49.70
20866;DHT22;10593;48.398;10.698;2024-02-21T11:47:14;11.70;49.60
20866;DHT22;10593;48.398;10.698;2024-02-21T11:49:47;11.70;49.50
20866;DHT22;10593;48.398;10.698;2024-02-21T11:52:24;11.70;49.30
20866;DHT22;10593;48.398;10.698;2024-02-21T11:54:54;11.80;49.30
20866;DHT22;10593;48.398;10.698;2024-02-21T11:57:22;11.80;49.30
20866;DHT22;10593;48.398;10.698;2024-02-21T11:59:48;11.80;49.40
20866;DHT22;10593;48.398;10.698;2024-02-21T12:02:15;11.80;49.40
20866;DHT22;10593;48.398;10.698;2024-02-21T12:04:42;11.80;49.40
20866;DHT22;10593;48.398;10.698;2024-02-21T12:07:09;11.90;49.20
20866;DHT22;10593;48.398;10.698;2024-02-21T12:09:35;11.90;48.90
20866;DHT22;10593;48.398;10.698;2024-02-21T12:12:05;11.90;48.80
20866;DHT22;10593;48.398;10.698;2024-02-21T12:14:33;12.00;48.60
20866;DHT22;10593;48.398;10.698;2024-02-21T12:17:01;12.00;48.60
20866;DHT22;10593;48.398;10.698;2024-02-21T12:19:32;12.00;48.20
20866;DHT22;10593;48.398;10.698;2024-02-21T12:21:59;12.00;47.80
20866;DHT22;10593;48.398;10.698;2024-02-21T12:24:27;12.10;47.90
20866;DHT22;10593;48.398;10.698;2024-02-21T12:26:54;12.10;48.10
20866;DHT22;10593;48.398;10.698;2024-02-21T12:29:22;12.20;48.10
20866;DHT22;10593;48.398;10.698;2024-02-21T12:31:50;12.20;48.00
20866;DHT22;10593;48.398;10.698;2024-02-21T12:34:16;12.20;48.00
20866;DHT22;10593;48.398;10.698;2024-02-21T12:36:46;12.30;48.00
20866;DHT22;10593;48.398;10.698;2024-02-21T12:39:14;12.30;47.50
20866;DHT22;10593;48.398;10.698;2024-02-21T12:41:41;12.30;47.40
20866;DHT22;10593;48.398;10.698;2024-02-21T12:44:08;12.40;47.40
20866;DHT22;10593;48.398;10.698;2024-02-21T12:46:35;12.40;47.50
20866;DHT22;10593;48.398;10.698;2024-02-21T12:49:01;12.40;47.40
20866;DHT22;10593;48.398;10.698;2024-02-21T12:51:28;12.50;47.30
20866;DHT22;10593;48.398;10.698;2024-02-21T12:53:57;12.40;47.20
20866;DHT22;10593;48.398;10.698;2024-02-21T12:56:23;12.40;47.00
20866;DHT22;10593;48.398;10.698;2024-02-21T12:58:50;12.50;46.50
20866;DHT22;10593;48.398;10.698;2024-02-21T13:01:16;12.50;46.50
20866;DHT22;10593;48.398;10.698;2024-02-21T13:03:42;12.50;46.50
20866;DHT22;10593;48.398;10.698;2024-02-21T13:06:08;12.50;46.60
20866;DHT22;10593;48.398;10.698;2024-02-21T13:08:36;12.60;46.60
20866;DHT22;10593;48.398;10.698;2024-02-21T13:11:02;12.60;46.50
20866;DHT22;10593;48.398;10.698;2024-02-21T13:13:28;12.60;46.30
20866;DHT22;10593;48.398;10.698;2024-02-21T13:15:54;12.60;46.30
20866;DHT22;10593;48.398;10.698;2024-02-21T13:18:20;12.60;46.00
20866;DHT22;10593;48.398;10.698;2024-02-21T13:20:45;12.60;45.90
20866;DHT22;10593;48.398;10.698;2024-02-21T13:23:11;12.70;45.90
20866;DHT22;10593;48.398;10.698;2024-02-21T13:25:38;12.70;45.80
20866;DHT22;10593;48.398;10.698;2024-02-21T13:28:03;12.70;45.90
20866;DHT22;10593;48.398;10.698;2024-02-21T13:30:29;12.80;46.10
20866;DHT22;10593;48.398;10.698;2024-02-21T13:32:55;12.80;46.10
20866;DHT22;10593;48.398;10.698;2024-02-21T13:35:21;12.80;45.90
20866;DHT22;10593;48.398;10.698;2024-02-21T13:37:46;12.80;45.80
20866;DHT22;10593;48.398;10.698;2024-02-21T13:40:12;12.80;45.60
20866;DHT22;10593;48.398;10.698;2024-02-21T13:42:39;12.90;45.30
20866;DHT22;10593;48.398;10.698;2024-02-21T13:45:06;12.80;45.20
20866;DHT22;10593;48.398;10.698;2024-02-21T13:47:33;12.80;45.00
20866;DHT22;10593;48.398;10.698;2024-02-21T13:49:59;12.90;45.10
20866;DHT22;10593;48.398;10.698;2024-02-21T13:52:25;12.90;45.20
20866;DHT22;10593;48.398;10.698;2024-02-21T13:54:53;12.90;45.90
20866;DHT22;10593;48.398;10.698;2024-02-21T13:57:19;12.90;45.30
20866;DHT22;10593;48.398;10.698;2024-02-21T13:59:44;12.90;45.80
20866;DHT22;10593;48.398;10.698;2024-02-21T14:02:10;12.90;45.10
20866;DHT22;10593;48.398;10.698;2024-02-21T14:04:36;12.90;45.10
20866;DHT22;10593;48.398;10.698;2024-02-21T14:07:02;12.90;45.10
20866;DHT22;10593;48.398;10.698;2024-02-21T14:09:28;12.90;45.00
20866;DHT22;10593;48.398;10.698;2024-02-21T14:11:56;12.90;44.80
20866;DHT22;10593;48.398;10.698;2024-02-21T14:14:21;12.90;44.80
20866;DHT22;10593;48.398;10.698;2024-02-21T14:16:47;13.00;44.80
20866;DHT22;10593;48.398;10.698;2024-02-21T14:19:14;13.00;44.90
20866;DHT22;10593;48.398;10.698;2024-02-21T14:21:40;13.00;44.70
20866;DHT22;10593;48.398;10.698;2024-02-21T14:24:06;13.00;44.70
20866;DHT22;10593;48.398;10.698;2024-02-21T14:26:32;13.00;44.60
20866;DHT22;10593;48.398;10.698;2024-02-21T14:28:58;13.10;44.70
20866;DHT22;10593;48.398;10.698;2024-02-21T14:31:24;13.10;44.50
20866;DHT22;10593;48.398;10.698;2024-02-21T14:33:51;13.10;44.40
20866;DHT22;10593;48.398;10.698;2024-02-21T14:36:17;13.10;44.40
20866;DHT22;10593;48.398;10.698;2024-02-21T14:38:44;13.10;44.30
20866;DHT22;10593;48.398;10.698;2024-02-21T14:41:10;13.10;44.30
20866;DHT22;10593;48.398;10.698;2024-02-21T14:43:38;13.10;44.20
20866;DHT22;10593;48.398;10.698;2024-02-21T14:46:04;13.10;44.30
20866;DHT22;10593;48.398;10.698;2024-02-21T14:48:34;13.10;44.40
20866;DHT22;10593;48.398;10.698;2024-02-21T14:51:01;13.10;44.20
20866;DHT22;10593;48.398;10.698;2024-02-21T14:53:27;13.10;44.20
20866;DHT22;10593;48.398;10.698;2024-02-21T14:55:53;13.10;44.00
20866;DHT22;10593;48.398;10.698;2024-02-21T14:58:18;13.10;44.10
20866;DHT22;10593;48.398;10.698;2024-02-21T15:00:45;13.10;44.00
20866;DHT22;10593;48.398;10.698;2024-02-21T15:03:12;13.10;44.10
20866;DHT22;10593;48.398;10.698;2024-02-21T15:05:41;13.10;44.30
20866;DHT22;10593;48.398;10.698;2024-02-21T15:08:07;13.10;44.20
20866;DHT22;10593;48.398;10.698;2024-02-21T15:10:34;13.10;44.70
20866;DHT22;10593;48.398;10.698;2024-02-21T15:13:00;13.10;44.10
20866;DHT22;10593;48.398;10.698;2024-02-21T15:15:26;13.10;44.00
20866;DHT22;10593;48.398;10.698;2024-02-21T15:17:51;13.10;43.90
20866;DHT22;10593;48.398;10.698;2024-02-21T15:20:17;13.10;43.70
20866;DHT22;10593;48.398;10.698;2024-02-21T15:22:43;13.10;43.70
20866;DHT22;10593;48.398;10.698;2024-02-21T15:25:09;13.10;43.70
20866;DHT22;10593;48.398;10.698;2024-02-21T15:27:43;13.20;44.00
20866;DHT22;10593;48.398;10.698;2024-02-21T15:30:11;13.20;44.10